• Join FlightAware (Why Join?)
  • Login
  • US Flag 
12:57AM EDT


 

Airport Tracker/Info


-or-


 

Live Flight TrackerFlight Track Log ✈ N440FX ✈ 16-May-2012 ✈ KBJC - KSAN

Flight Track Log - Related Links

Times and Time Zones

All times are in EDT time to prevent confusion due to time zone crossing. See the N440FX flight status page for this flight to view local times or setup timezone preferences in your user account.

Time Position Orientation Groundspeed Altitude Reporting Facility
EDT Latitude Longitude Course Direction KTS MPH feet Rate Location/Type
12:00PM 39.9500 -105.1333 227° Southwest 219 252 7,600  Level Denver TRACON
12:05PM 39.7700 -105.3872 220° Southwest 367 422 19,700 2,520 Climbing Denver Center
12:06PM 39.6894 -105.4747 219° Southwest 381 438 22,600 2,700 Climbing Denver Center
12:07PM 39.6047 -105.5622 232° Southwest 387 445 25,100 2,460 Climbing Denver Center
12:08PM 39.5347 -105.6764 251° West 395 455 27,600 2,520 Climbing Denver Center
12:09PM 39.4981 -105.8114 249° West 401 461 30,200 2,520 Climbing Denver Center
12:10PM 39.4550 -105.9594 250° West 412 474 32,700 2,400 Climbing Denver Center
12:11PM 39.4178 -106.0942 250° West 407 468 35,100 2,280 Climbing Denver Center
12:12PM 39.3808 -106.2233 250° West 402 463 37,300 1,860 Climbing Denver Center
12:13PM 39.3497 -106.3364 250° West 382 440 38,900 1,260 Climbing Denver Center
12:14PM 39.3164 -106.4569 250° West 376 433 39,900 960 Climbing Denver Center
12:15PM 39.2767 -106.5992 248° West 376 433 40,900 900 Climbing Denver Center
12:16PM 39.2369 -106.7253 231° Southwest 376 433 41,700 660 Climbing Denver Center
12:17PM 39.1739 -106.8267 232° Southwest 392 451 42,300 540 Climbing Denver Center
12:18PM 39.1069 -106.9361 232° Southwest 401 461 42,800 300 Climbing Denver Center
12:19PM 39.0292 -107.0639 232° Southwest 410 472 43,000 60 Climbing Denver Center
12:20PM 38.9556 -107.1833 230° Southwest 427 491 43,000  Level Denver Center
12:21PM 38.8797 -107.3000 232° Southwest 427 491 43,000  Level Denver Center
12:22PM 38.8100 -107.4136 231° Southwest 447 514 43,000  Level Denver Center
12:23PM 38.7253 -107.5456 232° Southwest 447 514 43,000  Level Denver Center
12:24PM 38.6511 -107.6667 232° Southwest 440 506 43,000  Level Denver Center
12:25PM 38.5769 -107.7875 230° Southwest 440 506 43,000  Level Denver Center
12:26PM 38.5089 -107.8925 230° Southwest 440 506 43,000  Level Denver Center
12:27PM 38.4217 -108.0231 230° Southwest 440 506 43,000  Level Denver Center
12:28PM 38.3450 -108.1406 229° Southwest 440 506 43,000  Level Denver Center
12:29PM 38.2639 -108.2575 231° Southwest 445 512 43,000  Level Denver Center
12:30PM 38.1956 -108.3642 229° Southwest 440 506 43,000  Level Denver Center
12:31PM 38.1100 -108.4886 231° Southwest 434 499 43,000  Level Denver Center
12:32PM 38.0414 -108.5972 228° Southwest 424 488 43,000  Level Denver Center
12:33PM 37.9619 -108.7081 231° Southwest 418 481 43,000  Level Denver Center
12:34PM 37.8933 -108.8139 228° Southwest 432 497 43,000  Level Denver Center
12:35PM 37.8158 -108.9217 230° Southwest 427 491 43,000  Level Denver Center
12:36PM 37.7297 -109.0500 228° Southwest 432 497 43,000  Level Denver Center
12:37PM 37.6500 -109.1625 229° Southwest 432 497 43,000  Level Denver Center
12:38PM 37.5786 -109.2672 227° Southwest 432 497 43,000  Level Denver Center
12:39PM 37.4967 -109.3792 229° Southwest 432 497 43,000  Level Denver Center
12:42PM 37.2539 -109.7239 228° Southwest 449 517 43,000  Level Denver Center
12:43PM 37.1647 -109.8500 229° Southwest 449 517 43,000  Level Denver Center
12:44PM 37.0861 -109.9636 226° Southwest 441 507 43,000  Level Denver Center
12:47PM 36.8489 -110.2736 229° Southwest 431 496 43,000  Level Denver Center
12:48PM 36.7722 -110.3836 227° Southwest 437 503 43,000  Level Denver Center
12:49PM 36.6892 -110.4931 228° Southwest 437 503 43,000  Level Denver Center
12:50PM 36.6081 -110.6050 227° Southwest 437 503 43,000  Level Denver Center
12:51PM 36.5247 -110.7164 228° Southwest 437 503 43,000  Level Denver Center
12:52PM 36.4456 -110.8253 229° Southwest 432 497 43,000  Level Denver Center
12:53PM 36.3597 -110.9467 227° Southwest 432 497 43,000  Level Denver Center
12:55PM 36.2147 -111.1408 228° Southwest 419 482 43,000  Level Los Angeles Center
12:56PM 36.1375 -111.2483 239° Southwest 419 482 43,000  Level Los Angeles Center
12:57PM 36.0758 -111.3756 244° Southwest 424 488 43,000  Level Los Angeles Center
12:58PM 36.0186 -111.5175 244° Southwest 424 488 43,000  Level Los Angeles Center
12:59PM 35.9692 -111.6408 244° Southwest 424 488 43,000  Level Los Angeles Center
01:00PM 35.9269 -111.7458 244° Southwest 424 488 43,000  Level Los Angeles Center
01:01PM 35.8656 -111.9003 243° Southwest 424 488 43,000  Level Los Angeles Center
01:02PM 35.8136 -112.0261 243° Southwest 419 482 43,000  Level Los Angeles Center
01:03PM 35.7594 -112.1567 243° Southwest 419 482 43,000  Level Los Angeles Center
01:04PM 35.7072 -112.2847 243° Southwest 424 488 43,000  Level Los Angeles Center
01:05PM 35.6547 -112.4097 243° Southwest 424 488 43,000  Level Los Angeles Center
01:06PM 35.6022 -112.5375 243° Southwest 419 482 43,000  Level Los Angeles Center
01:07PM 35.5517 -112.6569 242° Southwest 430 495 43,000  Level Los Angeles Center
01:08PM 35.4967 -112.7844 244° Southwest 430 495 43,000  Level Los Angeles Center
01:09PM 35.4419 -112.9242 242° Southwest 430 495 43,000  Level Los Angeles Center
01:11PM 35.3356 -113.1703 241° Southwest 418 481 43,000  Level Los Angeles Center
01:12PM 35.2781 -113.2994 242° Southwest 433 498 43,000  Level Los Angeles Center
01:13PM 35.2244 -113.4233 242° Southwest 438 504 43,000  Level Los Angeles Center
01:14PM 35.1689 -113.5522 242° Southwest 438 504 43,000 -660 Level Los Angeles Center
01:16PM 35.0611 -113.8044 241° Southwest 433 498 41,000 -1,020 Descending Los Angeles Center
01:17PM 35.0050 -113.9278 243° Southwest 428 493 39,900 -1,620 Descending Los Angeles Center
01:18PM 34.9508 -114.0558 241° Southwest 409 471 37,800 -2,520 Descending Los Angeles Center
01:19PM 34.8967 -114.1761 241° Southwest 404 465 34,900 -2,940 Descending Los Angeles Center
01:20PM 34.8400 -114.2989 243° Southwest 404 465 32,000 -2,340 Descending Los Angeles Center
01:21PM 34.7856 -114.4292 229° Southwest 416 479 30,300 -1,020 Descending Los Angeles Center
01:22PM 34.7078 -114.5394 225° Southwest 431 496 30,000 -180 Descending Los Angeles Center
01:23PM 34.6092 -114.6600 222° Southwest 443 510 30,000 -420 Level Los Angeles Center
01:24PM 34.5164 -114.7597 223° Southwest 454 522 29,200 -900 Descending Los Angeles Center
01:25PM 34.4317 -114.8569 223° Southwest 461 531 28,200 -1,020 Descending Los Angeles Center
01:26PM 34.3411 -114.9589 222° Southwest 455 524 27,200 -1,020 Descending Los Angeles Center
01:27PM 34.2500 -115.0583 224° Southwest 455 524 26,200 -1,200 Descending Los Angeles Center
01:28PM 34.1611 -115.1622 223° Southwest 450 518 24,800 -1,140 Descending Los Angeles Center
01:29PM 34.0639 -115.2711 222° Southwest 444 511 24,000 -960 Descending Los Angeles Center
01:30PM 33.9811 -115.3622 222° Southwest 450 518 22,900 -1,080 Descending Los Angeles Center
01:31PM 33.8981 -115.4531 223° Southwest 436 502 21,900 -1,020 Descending Los Angeles Center
01:32PM 33.8172 -115.5436 222° Southwest 415 478 20,900 -960 Descending Los Angeles Center
01:33PM 33.7339 -115.6342 223° Southwest 409 471 20,000 -480 Descending Los Angeles Center
01:34PM 33.6508 -115.7269 223° Southwest 409 471 20,000  Level Los Angeles Center
01:35PM 33.5675 -115.8194 224° Southwest 409 471 20,000  Level Los Angeles Center
01:36PM 33.4803 -115.9194 223° Southwest 416 479 20,000  Level Los Angeles Center
01:37PM 33.3925 -116.0167 223° Southwest 426 490 20,000  Level Los Angeles Center
01:38PM 33.3031 -116.1161 223° Southwest 433 498 20,000 -900 Level Los Angeles Center
01:39PM 33.2131 -116.2156 223° Southwest 433 498 18,200 -2,400 Descending Los Angeles Center
01:40PM 33.1294 -116.3097 223° Southwest 433 498 15,300 -2,760 Descending Los Angeles Center
01:41PM 33.0417 -116.4086 215° Southwest 419 482 12,700 -1,920 Descending Los Angeles Center
01:42PM 32.9600 -116.4775 219° Southwest 384 442 11,500 -1,200 Descending Los Angeles Center
01:45PM 32.7833 -116.6500 245° Southwest 304 350 8,500 -1,200 Descending Southern California TRACON
01:46PM 32.7500 -116.7333 235° Southwest 305 351 7,300 -1,200 Descending Southern California TRACON
01:47PM 32.7000 -116.8167 257° West 288 331 6,100 -1,260 Descending Southern California TRACON
01:48PM 32.6833 -116.9000 276° West 235 270 4,800 -1,020 Descending Southern California TRACON
01:50PM 32.6964 -117.0392 276° West 204 235 2,700 -900 Descending Los Angeles Center
01:51PM 32.7000 -117.0833 292° West 191 220 2,100 -1,140 Descending Southern California TRACON
01:52PM 32.7167 -117.1333 301° West 155 178 800 -840 Descending Southern California TRACON
01:53PM 32.7333 -117.1667 278° West 121 139 500 8,280 Descending Southern California TRACON
01:54PM 32.7425 -117.2472 284° West 159 183 20,000 8,040 Climbing Los Angeles Center
01:55PM 32.7525 -117.2967 284° West 159 183 20,000  Level Los Angeles Center
01:56PM 32.7625 -117.3461 283° West 159 183 20,000  Level Los Angeles Center
01:57PM 32.7644 -117.3561 283° West 159 183 20,000  Level Los Angeles Center